Terminal Aerodrome Forecast
Issued by NWS Huntsville, AL

Home | Current Version | Previous Version | Text Only | Print | Product List | Glossary On
Versions: 1 2 3 4 5 6 7 8 9 10 11 12
000
FTUS44 KHUN 270520
TAFHSV
TAF
KHSV 270520Z 2706/2806 01008KT P6SM BKN014 OVC150
     FM271400 01005KT P6SM SCT050 BKN250
     FM271900 33007KT P6SM SCT250=

USA.gov is the U.S. government's official web portal to all federal, state and local government web resources and services.